UUOO/VOZ METAR and TAF weather

Enter ICAO airport designator
Station Type Date Time Source
UUOO METAR 2022/06/26 08:00 UTC NOAA

UUOO 260800Z 06005MPS CAVOK 27/11 Q1019 R12/010070 NOSIG RMK QFE750


Station Type Date Time Source
UUOO Decoded METAR 2022/06/26 08:00 UTC NOAA

Voronez, Russia (UUOO) 51-39N 039-15E 104M
Jun 26, 2022 - 04:00 AM EDT / 2022.06.26 0800 UTC
Wind: from the ENE (060 degrees) at 11 MPH (10 KT):0
Visibility: greater than 7 mile(s):0
Temperature: 80 F (27 C)
Dew Point: 51 F (11 C)
Relative Humidity: 36%
Pressure (altimeter): 30.09 in. Hg (1019 hPa)
ob: UUOO 260800Z 06005MPS CAVOK 27/11 Q1019 R12/010070 NOSIG RMK QFE750
cycle: 8

Station Type Date Time Source
UUOO TAF 2019/08/12 03:33 UTC NOAA

TAF COR TAF COR UUOO 120159 1203/1212 31003MPS CAVOK

Example: see airport list